createdAt,value
2022-11-03T00:01:38.727Z,6.17
2022-11-03T00:04:08.025Z,5.10
2022-11-03T00:06:36.750Z,5.27
2022-11-03T00:09:07.261Z,4.87
2022-11-03T00:11:36.431Z,6.00
2022-11-03T00:14:04.781Z,5.57
2022-11-03T00:16:33.312Z,4.70
2022-11-03T00:19:02.773Z,4.37
2022-11-03T00:21:31.156Z,4.70
2022-11-03T00:23:59.596Z,4.07
2022-11-03T00:26:29.297Z,4.70
2022-11-03T00:29:00.497Z,4.77
2022-11-03T00:31:30.165Z,4.77
2022-11-03T00:33:59.397Z,4.77
2022-11-03T00:36:31.255Z,5.10
2022-11-03T00:38:59.467Z,4.43
2022-11-03T00:41:28.178Z,4.77
2022-11-03T00:43:57.224Z,4.60
2022-11-03T00:46:26.881Z,4.70
2022-11-03T00:48:55.010Z,4.50
2022-11-03T00:51:24.837Z,4.90
2022-11-03T00:53:56.158Z,4.73
2022-11-03T00:56:26.273Z,4.53
2022-11-03T00:58:55.435Z,4.33
2022-11-03T01:01:25.228Z,5.40
2022-11-03T01:04:14.424Z,4.73
2022-11-03T01:06:54.332Z,5.13
2022-11-03T01:09:25.636Z,4.73
2022-11-03T01:11:58.782Z,4.93
2022-11-03T01:14:30.462Z,4.63
2022-11-03T01:16:58.585Z,4.40
2022-11-03T01:19:26.939Z,4.70
2022-11-03T01:21:55.811Z,4.70
2022-11-03T01:24:25.285Z,5.43
2022-11-03T01:26:53.628Z,5.10
2022-11-03T01:29:21.860Z,4.90
2022-11-03T01:31:50.147Z,4.30
2022-11-03T01:34:20.099Z,4.30
2022-11-03T01:36:49.108Z,4.60
2022-11-03T01:39:19.706Z,4.77
2022-11-03T01:41:51.487Z,4.87
2022-11-03T01:44:32.584Z,3.90
2022-11-03T01:47:13.064Z,4.80
2022-11-03T01:49:45.699Z,4.07
2022-11-03T01:52:19.028Z,4.80
2022-11-03T01:54:51.126Z,4.70
2022-11-03T01:57:25.427Z,4.50
2022-11-03T01:59:55.708Z,4.20
2022-11-03T02:02:27.715Z,4.57
2022-11-03T02:05:00.022Z,4.70
2022-11-03T02:07:33.889Z,4.53
2022-11-03T02:10:02.770Z,4.57
2022-11-03T02:12:33.054Z,3.63
2022-11-03T02:15:07.293Z,4.60
2022-11-03T02:17:36.837Z,5.17
2022-11-03T02:20:07.776Z,3.80
2022-11-03T02:23:00.208Z,4.47
2022-11-03T02:25:45.273Z,4.20
2022-11-03T02:28:15.976Z,3.90
2022-11-03T02:30:47.549Z,4.17
2022-11-03T02:33:29.624Z,4.60
2022-11-03T02:36:04.545Z,4.50
2022-11-03T02:38:36.024Z,4.27
2022-11-03T02:41:09.631Z,4.57
2022-11-03T02:43:39.842Z,4.50
2022-11-03T02:46:08.955Z,3.97
2022-11-03T02:48:37.380Z,3.67
2022-11-03T02:51:05.851Z,3.70
2022-11-03T02:53:40.351Z,4.60
2022-11-03T02:56:15.176Z,4.10
2022-11-03T02:58:50.857Z,4.10
2022-11-03T03:01:24.053Z,4.17
2022-11-03T03:03:56.075Z,3.73
2022-11-03T03:06:26.569Z,3.80
2022-11-03T03:08:59.112Z,3.50
2022-11-03T03:11:40.559Z,3.97
2022-11-03T03:14:13.802Z,3.80
2022-11-03T03:16:51.494Z,3.53
2022-11-03T03:19:26.187Z,3.47
2022-11-03T03:21:58.320Z,4.23
2022-11-03T03:24:37.451Z,4.60
2022-11-03T03:27:12.444Z,3.77
2022-11-03T03:29:44.283Z,3.80
2022-11-03T03:32:15.975Z,3.47
2022-11-03T03:34:46.375Z,3.80
2022-11-03T03:37:17.041Z,3.83
2022-11-03T03:39:49.829Z,3.73
2022-11-03T03:42:22.749Z,3.73
2022-11-03T03:44:52.139Z,3.70
2022-11-03T03:47:25.906Z,4.07
2022-11-03T03:49:54.020Z,4.00
2022-11-03T03:52:22.658Z,3.73
2022-11-03T03:54:51.108Z,4.20
2022-11-03T03:57:23.273Z,4.33
2022-11-03T03:59:51.624Z,3.90
2022-11-03T04:02:19.796Z,3.23
2022-11-03T04:04:48.002Z,3.27
2022-11-03T04:07:34.441Z,3.73
2022-11-03T04:10:05.201Z,3.30
2022-11-03T04:12:52.092Z,3.83
2022-11-03T04:15:37.780Z,3.77
2022-11-03T04:18:23.208Z,3.57
2022-11-03T04:21:08.538Z,3.17
2022-11-03T04:23:36.617Z,3.73
2022-11-03T04:26:07.784Z,3.20
2022-11-03T04:28:37.408Z,4.03
2022-11-03T04:31:11.030Z,3.83
2022-11-03T04:33:39.937Z,3.77
2022-11-03T04:36:13.626Z,3.30
2022-11-03T04:38:41.856Z,2.90
2022-11-03T04:41:16.387Z,3.60
2022-11-03T04:43:46.930Z,3.63
2022-11-03T04:46:17.914Z,2.97
2022-11-03T04:48:47.427Z,2.90
2022-11-03T04:51:18.398Z,3.23
2022-11-03T04:53:51.075Z,3.80
2022-11-03T04:56:23.151Z,3.10
2022-11-03T04:58:53.692Z,2.60
2022-11-03T05:01:24.730Z,3.60
2022-11-03T05:03:55.293Z,2.67
2022-11-03T05:06:25.291Z,3.20
2022-11-03T05:08:56.523Z,3.20
2022-11-03T05:11:30.823Z,3.37
2022-11-03T05:14:02.463Z,2.90
2022-11-03T05:16:31.842Z,3.00
2022-11-03T05:19:00.605Z,2.67
2022-11-03T05:21:29.450Z,3.00
2022-11-03T05:23:59.486Z,3.07
2022-11-03T05:26:30.784Z,2.77
2022-11-03T05:29:03.345Z,3.00
2022-11-03T05:31:33.265Z,3.33
2022-11-03T05:34:02.969Z,3.00
2022-11-03T05:36:34.232Z,2.93
2022-11-03T05:39:17.692Z,2.97
2022-11-03T05:41:45.804Z,2.90
2022-11-03T05:44:30.111Z,2.80
2022-11-03T05:47:01.961Z,2.70
2022-11-03T05:49:33.398Z,3.07
2022-11-03T05:52:02.035Z,2.70
2022-11-03T05:54:35.124Z,2.67
2022-11-03T05:57:03.225Z,2.83
2022-11-03T05:59:32.673Z,2.77
2022-11-03T06:02:01.986Z,2.90
2022-11-03T06:04:33.814Z,2.87
2022-11-03T06:07:03.435Z,3.30
2022-11-03T06:09:34.747Z,2.70
2022-11-03T06:12:05.914Z,2.80
2022-11-03T06:14:37.421Z,2.60
2022-11-03T06:17:07.617Z,2.70
2022-11-03T06:19:39.224Z,2.57
2022-11-03T06:22:15.360Z,2.60
2022-11-03T06:24:43.704Z,2.63
2022-11-03T06:27:15.425Z,2.20
2022-11-03T06:29:50.016Z,2.20
2022-11-03T06:32:18.501Z,2.20
2022-11-03T06:34:48.494Z,2.60
2022-11-03T06:37:21.597Z,2.73
2022-11-03T06:39:50.682Z,2.40
2022-11-03T06:42:23.129Z,2.47
2022-11-03T06:44:54.187Z,2.57
2022-11-03T06:47:24.477Z,2.50
2022-11-03T06:49:54.418Z,3.20
2022-11-03T06:52:26.973Z,2.77
2022-11-03T06:55:22.830Z,3.33
2022-11-03T06:57:55.173Z,3.40
2022-11-03T07:00:36.098Z,3.23
2022-11-03T07:03:10.497Z,3.00
2022-11-03T07:05:40.250Z,2.50
2022-11-03T07:08:20.744Z,2.87
2022-11-03T07:10:49.222Z,2.73
2022-11-03T07:13:21.241Z,3.00
2022-11-03T07:15:51.134Z,3.20
2022-11-03T07:18:23.813Z,3.00
2022-11-03T07:20:53.142Z,2.83
2022-11-03T07:23:27.885Z,2.60
2022-11-03T07:25:59.397Z,3.30
2022-11-03T07:28:32.931Z,2.93
2022-11-03T07:31:10.184Z,2.87
2022-11-03T07:33:40.445Z,3.50
2022-11-03T07:36:15.828Z,3.67
2022-11-03T07:38:45.959Z,3.73
2022-11-03T07:41:19.491Z,3.50
2022-11-03T07:43:52.584Z,3.57
2022-11-03T07:46:23.621Z,3.73
2022-11-03T07:48:54.537Z,4.43
2022-11-03T07:51:26.099Z,3.63
2022-11-03T07:53:57.528Z,4.13
2022-11-03T07:56:28.566Z,4.13
2022-11-03T07:59:01.747Z,3.47
2022-11-03T08:01:35.049Z,4.13
2022-11-03T08:04:06.146Z,3.13
2022-11-03T08:06:34.436Z,4.57
2022-11-03T08:09:02.615Z,3.63
2022-11-03T08:11:30.941Z,4.10
2022-11-03T08:13:59.112Z,3.43
2022-11-03T08:16:27.205Z,4.60
2022-11-03T08:18:56.641Z,4.80
2022-11-03T08:21:24.939Z,4.20
2022-11-03T08:23:53.187Z,4.90
2022-11-03T08:26:21.724Z,3.97
2022-11-03T08:28:49.898Z,5.20
2022-11-03T08:31:18.001Z,4.70
2022-11-03T08:33:46.481Z,4.53
2022-11-03T08:36:16.105Z,4.27
2022-11-03T08:38:44.259Z,4.40
2022-11-03T08:41:12.403Z,4.83
2022-11-03T08:43:40.494Z,4.30
2022-11-03T08:46:18.221Z,3.90
2022-11-03T08:48:47.035Z,4.70
2022-11-03T08:51:17.073Z,4.80
2022-11-03T08:53:46.362Z,4.67
2022-11-03T08:56:17.023Z,4.40
2022-11-03T08:58:47.503Z,5.07
2022-11-03T09:01:15.917Z,4.80
2022-11-03T09:03:44.201Z,4.13
2022-11-03T09:06:12.427Z,4.30
2022-11-03T09:11:29.997Z,3.93
2022-11-03T09:13:58.208Z,5.23
2022-11-03T09:16:26.609Z,4.70
2022-11-03T09:18:54.722Z,4.47
2022-11-03T09:21:25.767Z,4.50
2022-11-03T09:23:56.363Z,4.17
2022-11-03T09:26:24.429Z,5.27
2022-11-03T09:28:52.601Z,4.60
2022-11-03T09:31:21.325Z,4.80
2022-11-03T09:33:49.456Z,4.70
2022-11-03T09:36:17.550Z,4.97
2022-11-03T09:38:45.650Z,4.60
2022-11-03T09:41:26.568Z,4.80
2022-11-03T09:43:58.605Z,4.63
2022-11-03T09:46:29.423Z,4.27
2022-11-03T09:48:57.710Z,4.40
2022-11-03T09:51:28.159Z,4.60
2022-11-03T09:53:59.072Z,4.33
2022-11-03T09:56:28.719Z,4.63
2022-11-03T09:58:56.850Z,4.20
2022-11-03T10:01:25.482Z,4.30
2022-11-03T10:03:54.131Z,4.20
2022-11-03T10:06:22.269Z,4.37
2022-11-03T10:08:50.874Z,4.30
2022-11-03T10:11:19.424Z,4.20
2022-11-03T10:13:52.950Z,4.20
2022-11-03T10:16:24.242Z,4.30
2022-11-03T10:18:53.199Z,4.13
2022-11-03T10:21:26.434Z,4.97
2022-11-03T10:23:54.527Z,3.77
2022-11-03T10:26:23.358Z,3.67
2022-11-03T10:29:04.373Z,3.70
2022-11-03T10:31:35.233Z,3.83
2022-11-03T10:34:03.703Z,3.93
2022-11-03T10:36:33.567Z,3.90
2022-11-03T10:39:19.095Z,5.00
2022-11-03T10:41:57.329Z,3.90
2022-11-03T10:44:28.760Z,4.23
2022-11-03T10:46:59.086Z,3.73
2022-11-03T10:49:29.361Z,3.90
2022-11-03T10:52:07.930Z,3.80
2022-11-03T10:54:37.940Z,3.90
2022-11-03T10:57:06.257Z,3.83
2022-11-03T10:59:38.837Z,3.70
2022-11-03T11:02:16.490Z,3.80
2022-11-03T11:04:44.846Z,3.63
2022-11-03T11:07:23.343Z,3.40
2022-11-03T11:09:51.786Z,4.63
2022-11-03T11:12:22.473Z,3.80
2022-11-03T11:14:57.562Z,3.27
2022-11-03T11:17:46.734Z,3.63
2022-11-03T11:20:49.337Z,3.60
2022-11-03T11:23:52.898Z,3.20
2022-11-03T11:26:42.381Z,4.53
2022-11-03T11:29:46.189Z,4.10
2022-11-03T11:32:56.151Z,3.43
2022-11-03T11:36:09.894Z,3.50
2022-11-03T11:39:13.298Z,3.87
2022-11-03T11:42:07.662Z,3.60
2022-11-03T11:44:54.968Z,3.40
2022-11-03T11:47:35.060Z,3.80
2022-11-03T11:50:34.082Z,3.60
2022-11-03T11:53:21.511Z,3.43
2022-11-03T11:55:55.109Z,4.10
2022-11-03T11:58:32.198Z,3.13
2022-11-03T12:01:02.519Z,3.23
2022-11-03T12:03:34.930Z,3.43
2022-11-03T12:06:03.315Z,3.40
2022-11-03T12:08:32.824Z,3.47
2022-11-03T12:11:04.610Z,3.23
2022-11-03T12:13:37.803Z,3.27
2022-11-03T12:16:06.331Z,3.20
2022-11-03T12:18:40.751Z,3.37
2022-11-03T12:21:13.968Z,2.93
2022-11-03T12:23:43.685Z,3.03
2022-11-03T12:26:39.946Z,3.50
2022-11-03T12:29:08.050Z,3.30
2022-11-03T12:31:37.168Z,3.70
2022-11-03T12:34:05.372Z,2.90
2022-11-03T12:36:33.448Z,3.20
2022-11-03T12:39:01.588Z,3.40
2022-11-03T12:41:31.033Z,3.47
2022-11-03T12:43:59.152Z,3.60
2022-11-03T12:46:27.441Z,3.50
2022-11-03T12:48:55.496Z,3.07
2022-11-03T12:51:25.179Z,3.50
2022-11-03T12:53:53.557Z,3.50
2022-11-03T12:56:21.663Z,3.03
2022-11-03T12:58:51.157Z,3.20
2022-11-03T13:01:19.749Z,3.23
2022-11-03T13:03:47.945Z,3.10
2022-11-03T13:06:16.209Z,3.27
2022-11-03T13:08:45.728Z,3.30
2022-11-03T13:11:33.432Z,3.37
2022-11-03T13:14:03.998Z,3.30
2022-11-03T13:16:32.150Z,3.43
2022-11-03T13:19:00.428Z,3.70
2022-11-03T13:21:28.635Z,3.70
2022-11-03T13:23:56.820Z,3.13
2022-11-03T13:26:24.912Z,3.30
2022-11-03T13:28:53.242Z,3.67
2022-11-03T13:31:22.721Z,3.47
2022-11-03T13:33:51.830Z,3.83
2022-11-03T13:36:19.988Z,4.00
2022-11-03T13:38:48.124Z,3.00
2022-11-03T13:41:16.236Z,4.50
2022-11-03T13:43:44.293Z,3.20
2022-11-03T13:46:12.919Z,2.90
2022-11-03T13:51:30.574Z,2.80
2022-11-03T13:59:37.561Z,3.27
2022-11-03T14:04:55.759Z,3.00
2022-11-03T14:07:24.068Z,3.27
2022-11-03T14:09:52.154Z,3.27
2022-11-03T14:12:32.382Z,2.67
2022-11-03T14:15:01.531Z,2.53
2022-11-03T14:17:29.678Z,2.67
2022-11-03T14:20:04.195Z,2.60
2022-11-03T14:22:33.120Z,3.10
2022-11-03T14:25:01.695Z,2.57
2022-11-03T14:27:29.923Z,2.87
2022-11-03T14:29:58.196Z,2.70
2022-11-03T14:32:26.814Z,2.47
2022-11-03T14:34:54.949Z,2.80
2022-11-03T14:37:25.411Z,2.40
2022-11-03T14:39:53.851Z,2.70
2022-11-03T14:42:21.378Z,2.67
2022-11-03T14:44:49.787Z,2.50
2022-11-03T14:47:19.369Z,2.60
2022-11-03T14:49:47.657Z,2.67
2022-11-03T14:52:17.130Z,2.60
2022-11-03T14:54:46.610Z,3.00
2022-11-03T14:57:14.733Z,2.97
2022-11-03T14:59:42.884Z,2.77
2022-11-03T15:02:11.343Z,3.20
2022-11-03T15:04:39.539Z,2.63
2022-11-03T15:07:07.646Z,2.47
2022-11-03T15:09:35.697Z,2.13
2022-11-03T15:12:05.523Z,2.60
2022-11-03T15:14:33.885Z,2.50
2022-11-03T15:17:02.185Z,2.90
2022-11-03T15:19:30.344Z,3.10
2022-11-03T15:21:58.434Z,3.00
2022-11-03T15:27:16.132Z,2.73
2022-11-03T15:29:44.237Z,3.27
2022-11-03T15:32:12.343Z,3.37
2022-11-03T15:34:40.411Z,3.20
2022-11-03T15:37:08.558Z,3.10
2022-11-03T15:39:36.690Z,3.50
2022-11-03T15:42:05.109Z,2.93
2022-11-03T15:44:34.695Z,2.93
2022-11-03T15:47:02.780Z,2.90
2022-11-03T15:49:30.881Z,3.60
2022-11-03T15:51:58.998Z,3.03
2022-11-03T15:54:27.087Z,3.00
2022-11-03T15:56:55.185Z,2.73
2022-11-03T15:59:23.300Z,3.07
2022-11-03T16:01:59.482Z,2.90
2022-11-03T16:04:31.906Z,3.30
2022-11-03T16:07:07.627Z,3.30
2022-11-03T16:09:36.699Z,2.90
2022-11-03T16:12:04.973Z,3.70
2022-11-03T16:14:33.098Z,3.83
2022-11-03T16:17:02.525Z,3.03
2022-11-03T16:19:30.611Z,2.90
2022-11-03T16:21:58.676Z,3.40
2022-11-03T16:24:33.395Z,3.47
2022-11-03T16:27:03.660Z,2.63
2022-11-03T16:29:31.734Z,3.47
2022-11-03T16:31:59.904Z,4.10
2022-11-03T16:34:29.352Z,3.37
2022-11-03T16:36:57.487Z,3.70
2022-11-03T16:39:25.577Z,3.57
2022-11-03T16:41:55.015Z,3.60
2022-11-03T16:44:23.294Z,4.20
2022-11-03T16:46:51.383Z,3.80
2022-11-03T16:49:19.466Z,3.80
2022-11-03T16:51:49.125Z,4.30
2022-11-03T16:54:17.287Z,4.40
2022-11-03T16:56:48.410Z,4.13
2022-11-03T16:59:18.970Z,4.13
2022-11-03T17:01:47.178Z,3.57
2022-11-03T17:04:15.296Z,3.67
2022-11-03T17:06:43.348Z,4.03
2022-11-03T17:09:13.769Z,3.87
2022-11-03T17:11:42.198Z,3.93
2022-11-03T17:14:13.836Z,3.60
2022-11-03T17:16:46.672Z,4.00
2022-11-03T17:19:14.996Z,4.20
2022-11-03T17:21:43.287Z,3.73
2022-11-03T17:24:13.323Z,4.70
2022-11-03T17:26:52.453Z,4.00
2022-11-03T17:29:23.612Z,3.90
2022-11-03T17:31:52.023Z,3.53
2022-11-03T17:34:24.907Z,4.10
2022-11-03T17:36:54.248Z,3.33
2022-11-03T17:39:30.116Z,4.17
2022-11-03T17:42:16.095Z,5.33
2022-11-03T17:44:44.954Z,3.63
2022-11-03T17:47:13.023Z,4.00
2022-11-03T17:49:41.221Z,3.97
2022-11-03T17:52:15.023Z,4.00
2022-11-03T17:54:44.637Z,3.93
2022-11-03T17:57:17.268Z,3.90
2022-11-03T17:59:48.595Z,3.50
2022-11-03T18:02:18.992Z,4.70
2022-11-03T18:04:47.577Z,4.03
2022-11-03T18:07:22.628Z,3.57
2022-11-03T18:09:52.310Z,3.90
2022-11-03T18:12:41.759Z,3.53
2022-11-03T18:15:15.755Z,3.90
2022-11-03T18:17:44.551Z,3.80
2022-11-03T18:20:16.473Z,3.30
2022-11-03T18:22:45.134Z,3.77
2022-11-03T18:25:15.850Z,3.60
2022-11-03T18:27:44.223Z,3.70
2022-11-03T18:30:16.691Z,3.80
2022-11-03T18:32:46.448Z,4.20
2022-11-03T18:35:18.686Z,3.83
2022-11-03T18:37:47.300Z,4.27
2022-11-03T18:40:17.048Z,4.20
2022-11-03T18:42:45.262Z,3.60
2022-11-03T18:45:15.838Z,3.90
2022-11-03T18:47:44.121Z,4.20
2022-11-03T18:50:19.018Z,3.70
2022-11-03T18:52:49.348Z,3.70
2022-11-03T18:55:19.399Z,4.20
2022-11-03T18:57:47.685Z,4.20
2022-11-03T19:00:19.913Z,3.80
2022-11-03T19:02:48.642Z,4.20
2022-11-03T19:05:18.154Z,4.90
2022-11-03T19:07:49.134Z,3.80
2022-11-03T19:10:22.537Z,4.20
2022-11-03T19:12:50.790Z,4.03
2022-11-03T19:15:21.526Z,4.50
2022-11-03T19:17:52.280Z,4.00
2022-11-03T19:20:20.593Z,4.43
2022-11-03T19:22:49.002Z,4.10
2022-11-03T19:25:18.882Z,3.67
2022-11-03T19:27:48.953Z,3.90
2022-11-03T19:30:19.474Z,4.40
2022-11-03T19:32:49.636Z,4.50
2022-11-03T19:35:21.146Z,4.50
2022-11-03T19:37:50.690Z,4.07
2022-11-03T19:40:21.575Z,3.80
2022-11-03T19:42:48.844Z,4.20
2022-11-03T19:45:18.767Z,4.10
2022-11-03T19:48:18.372Z,5.00
2022-11-03T19:50:38.712Z,4.30
2022-11-03T19:53:08.259Z,3.90
2022-11-03T19:55:40.423Z,4.17
2022-11-03T19:58:15.423Z,4.00
2022-11-03T20:00:43.915Z,4.23
2022-11-03T20:03:13.083Z,4.23
2022-11-03T20:05:45.167Z,4.07
2022-11-03T20:08:19.731Z,4.17
2022-11-03T20:10:49.440Z,5.27
2022-11-03T20:13:22.227Z,4.20
2022-11-03T20:15:51.873Z,3.80
2022-11-03T20:18:21.831Z,4.30
2022-11-03T20:20:50.243Z,4.57
2022-11-03T20:23:22.654Z,4.63
2022-11-03T20:25:52.707Z,4.07
2022-11-03T20:28:23.017Z,4.57
2022-11-03T20:30:51.846Z,3.53
2022-11-03T20:33:22.985Z,4.20
2022-11-03T20:35:52.412Z,4.60
2022-11-03T20:38:21.687Z,4.30
2022-11-03T20:40:58.268Z,5.40
2022-11-03T20:43:28.578Z,4.50
2022-11-03T20:45:57.224Z,4.43
2022-11-03T20:48:25.572Z,4.47
2022-11-03T20:50:55.121Z,3.70
2022-11-03T20:53:26.719Z,4.63
2022-11-03T20:55:56.256Z,4.60
2022-11-03T20:58:24.583Z,4.83
2022-11-03T21:00:52.765Z,4.53
2022-11-03T21:03:37.999Z,4.70
2022-11-03T21:06:12.632Z,4.83
2022-11-03T21:08:40.893Z,5.27
2022-11-03T21:11:28.043Z,4.37
2022-11-03T21:13:58.492Z,4.03
2022-11-03T21:16:45.857Z,4.43
2022-11-03T21:19:34.808Z,5.07
2022-11-03T21:22:03.441Z,4.43
2022-11-03T21:24:31.619Z,4.23
2022-11-03T21:27:01.081Z,5.20
2022-11-03T21:32:18.571Z,4.60
2022-11-03T21:34:46.673Z,4.87
2022-11-03T21:37:15.904Z,4.23
2022-11-03T21:39:44.360Z,5.20
2022-11-03T21:42:32.816Z,4.70
2022-11-03T21:45:01.437Z,5.27
2022-11-03T21:47:29.741Z,4.77
2022-11-03T21:49:56.915Z,5.27
2022-11-03T21:52:32.563Z,4.37
2022-11-03T21:55:01.698Z,5.00
2022-11-03T21:57:31.273Z,5.97
2022-11-03T21:59:59.679Z,4.93
2022-11-03T22:02:30.159Z,4.73
2022-11-03T22:04:59.387Z,6.03
2022-11-03T22:07:31.894Z,5.90
2022-11-03T22:09:59.973Z,5.47
2022-11-03T22:12:28.749Z,7.10
2022-11-03T22:15:15.767Z,6.00
2022-11-03T22:17:45.103Z,7.17
2022-11-03T22:20:30.600Z,6.33
2022-11-03T22:23:18.603Z,6.40
2022-11-03T22:26:05.300Z,6.67
2022-11-03T22:28:33.375Z,6.27
2022-11-03T22:31:22.112Z,7.00
2022-11-03T22:34:07.922Z,6.90
2022-11-03T22:36:36.091Z,6.23
2022-11-03T22:39:22.092Z,5.80
2022-11-03T22:42:07.495Z,6.63
2022-11-03T22:44:52.924Z,6.43
2022-11-03T22:47:22.405Z,7.57
2022-11-03T22:49:50.496Z,6.87
2022-11-03T22:52:18.603Z,6.73
2022-11-03T22:54:45.704Z,7.80
2022-11-03T22:57:14.194Z,6.93
2022-11-03T22:59:42.300Z,7.60
2022-11-03T23:02:10.495Z,6.80
2022-11-03T23:04:40.086Z,7.50
2022-11-03T23:07:08.185Z,7.33
2022-11-03T23:09:36.225Z,7.27
2022-11-03T23:12:04.353Z,6.90
2022-11-03T23:14:55.562Z,7.40
2022-11-03T23:17:44.248Z,7.10
2022-11-03T23:20:31.038Z,6.33
2022-11-03T23:22:59.210Z,7.90
2022-11-03T23:25:26.270Z,7.90
2022-11-03T23:27:54.803Z,7.53
2022-11-03T23:30:22.931Z,7.63
2022-11-03T23:32:51.026Z,7.27
2022-11-03T23:35:21.017Z,7.20
2022-11-03T23:37:49.129Z,7.80
2022-11-03T23:40:20.517Z,6.63
2022-11-03T23:42:49.740Z,6.43
2022-11-03T23:45:35.222Z,6.23
2022-11-03T23:48:20.638Z,6.30
2022-11-03T23:50:50.070Z,6.60
2022-11-03T23:53:18.206Z,6.37
2022-11-03T23:56:00.893Z,6.40
2022-11-03T23:58:29.467Z,6.40
